Private Wetterstation Nrnberg - Katzwang
Wetterdaten: April 2013
Datum Temp. A. Feuchte A. Luftdruck Regen Wind Richtung Taupunkt Windchill Windben
01.04.2013 0,8 C 63 % 1006 hPa 0,0 l/m 1,7 km/h N-NO -5,5 C 0,7 C 2,7 km/h
02.04.2013 2,6 C 65 % 1006 hPa 0,0 l/m 12,0 km/h O -3,4 C -1,6 C 13,0 km/h
03.04.2013 2,5 C 62 % 1010 hPa 0,0 l/m 4,8 km/h O -4,0 C 1,1 C 5,8 km/h
04.04.2013 2,5 C 70 % 1007 hPa 0,0 l/m 5,3 km/h O -2,6 C 2,0 C 6,3 km/h
05.04.2013 2,4 C 76 % 1005 hPa 0,0 l/m 5,8 km/h NO -1,4 C 0,2 C 6,8 km/h
06.04.2013 3,2 C 74 % 1014 hPa 0,0 l/m 4,4 km/h NO -1,0 C 2,7 C 5,4 km/h
07.04.2013 3,2 C 68 % 1015 hPa 0,0 l/m 1,2 km/h N-NO -2,2 C 3,2 C 2,2 km/h
08.04.2013 5,8 C 59 % 1004 hPa 0,0 l/m 0,5 km/h O -1,9 C 5,8 C 1,5 km/h
09.04.2013 7,5 C 73 % 1001 hPa 2,6 l/m 3,6 km/h N 2,7 C 7,0 C 4,6 km/h
10.04.2013 8,3 C 77 % 1006 hPa 4,1 l/m 2,8 km/h W-NW 4,5 C 8,2 C 3,8 km/h
11.04.2013 12,6 C 78 % 1002 hPa 1,0 l/m 11,6 km/h N 8,7 C 9,7 C 17,4 km/h
12.04.2013 11,1 C 69 % 1005 hPa 1,6 l/m 2,4 km/h W-NW 5,3 C 11,1 C 3,4 km/h
13.04.2013 9,2 C 71 % 1018 hPa 0,0 l/m 2,4 km/h W-NW 4,0 C 9,2 C 3,4 km/h
14.04.2013 13,8 C 63 % 1022 hPa 0,0 l/m 3,6 km/h O-NO 6,5 C 13,8 C 4,6 km/h
15.04.2013 16,4 C 60 % 1018 hPa 0,0 l/m 2,9 km/h O-NO 8,1 C 16,3 C 3,9 km/h
16.04.2013 16,6 C 67 % 1018 hPa 0,0 l/m 0,0 km/h O 10,2 C 16,6 C 1,0 km/h
17.04.2013 17,4 C 62 % 1019 hPa 0,0 l/m 1,2 km/h W-NW 9,6 C 17,4 C 2,2 km/h
18.04.2013 18,8 C 60 % 1015 hPa 0,0 l/m 3,1 km/h W-NW 10,5 C 18,8 C 4,1 km/h
19.04.2013 10,8 C 71 % 1020 hPa 5,7 l/m 0,5 km/h W-NW 5,5 C 10,8 C 1,5 km/h
20.04.2013 8,4 C 79 % 1020 hPa 6,7 l/m 7,2 km/h NO 4,9 C 6,6 C 11,8 km/h
21.04.2013 12,5 C 70 % 1014 hPa 0,0 l/m 2,0 km/h N-NO 7,0 C 12,5 C 3,0 km/h
22.04.2013 13,3 C 69 % 1015 hPa 0,0 l/m 0,0 km/h W-NW 7,6 C 13,3 C 1,0 km/h
23.04.2013 14,2 C 58 % 1020 hPa 0,0 l/m 0,0 km/h W-NW 5,7 C 14,2 C 1,0 km/h
24.04.2013 15,5 C 59 % 1023 hPa 0,0 l/m 0,7 km/h W-NW 6,9 C 15,5 C 1,7 km/h
25.04.2013 17,3 C 59 % 1020 hPa 0,0 l/m 3,6 km/h NW 8,5 C 17,0 C 4,6 km/h
26.04.2013 18,2 C 63 % 1007 hPa 2,6 l/m 4,3 km/h W-NW 10,2 C 18,0 C 5,3 km/h
27.04.2013 9,1 C 83 % 1002 hPa 1,6 l/m 7,8 km/h N 6,3 C 7,7 C 8,9 km/h
28.04.2013 8,7 C 80 % 1012 hPa 1,0 l/m 2,2 km/h N-NO 5,4 C 8,2 C 3,2 km/h
29.04.2013 10,5 C 80 % 1016 hPa 1,6 l/m 0,0 km/h W-NW 7,2 C 10,5 C 1,0 km/h
30.04.2013 11,4 C 76 % 1017 hPa 0,0 l/m 4,8 km/h N-NO 7,3 C 11,4 C 5,8 km/h
Min-Datum 08.04.13 26.04.13 12.04.13 10 Tage 01.04.13 - 02.04.13 02.04.13 01.04.13
Min-Zeit 06:30 14:50 00:40 - 00:00 - 01:00 10:00 00:00
Minimum -4,1 C 34 % 999 hPa - 0,0 km/h - -7,5 C -7,0 C 1,0 km/h
Max-Datum 26.04.13 28.04.13 14.04.13 20.04.13 09.04.13 - 18.04.13 26.04.13 13.04.13
Max-Zeit 14:00 07:10 11:10 01:10 15:50 - 14:30 13:50 11:30
Maximum 27,9 C 85 % 1025 hPa 6,7 l/m 36,9 km/h
N
- 14,5 C 27,5 C 70,8 km/h
W-NW
Durchschnitt 10,2 C 69 % 1013 hPa #28,5 l/m 3,4 km/h NO 4,4 C 9,6 C 4,7 km/h

Durchschnitt Minimum Temp.5,2 C
Durchschnitt Maximum Temp.15,7 C